createdAt,value
2023-05-21T00:00:10.688Z,2.55
2023-05-21T00:03:16.500Z,3.20
2023-05-21T00:06:21.093Z,2.90
2023-05-21T00:09:23.510Z,2.90
2023-05-21T00:12:26.103Z,3.30
2023-05-21T00:15:28.459Z,2.62
2023-05-21T00:18:32.466Z,2.92
2023-05-21T00:21:34.767Z,2.80
2023-05-21T00:24:36.983Z,2.28
2023-05-21T00:27:39.402Z,2.90
2023-05-21T00:30:43.130Z,3.10
2023-05-21T00:33:45.355Z,3.95
2023-05-21T00:36:47.807Z,3.20
2023-05-21T00:39:50.482Z,3.05
2023-05-21T00:42:57.130Z,3.30
2023-05-21T00:45:59.846Z,3.08
2023-05-21T00:49:02.133Z,3.12
2023-05-21T00:52:05.433Z,2.62
2023-05-21T00:55:08.772Z,3.05
2023-05-21T00:58:11.138Z,3.10
2023-05-21T01:01:14.149Z,3.00
2023-05-21T01:04:16.669Z,2.80
2023-05-21T01:07:18.928Z,2.90
2023-05-21T01:10:21.169Z,3.20
2023-05-21T01:13:24.337Z,3.10
2023-05-21T01:16:26.743Z,3.50
2023-05-21T01:19:29.177Z,3.15
2023-05-21T01:22:32.527Z,2.72
2023-05-21T01:25:35.804Z,3.50
2023-05-21T01:28:38.461Z,2.83
2023-05-21T01:32:09.795Z,3.78
2023-05-21T01:35:15.015Z,3.42
2023-05-21T01:38:25.332Z,2.67
2023-05-21T01:41:29.938Z,2.70
2023-05-21T01:44:33.025Z,2.83
2023-05-21T01:47:36.316Z,2.70
2023-05-21T01:50:39.648Z,3.65
2023-05-21T01:53:42.136Z,2.97
2023-05-21T01:56:44.438Z,2.83
2023-05-21T01:59:47.885Z,3.17
2023-05-21T02:02:50.835Z,2.65
2023-05-21T02:05:53.227Z,3.25
2023-05-21T02:08:55.734Z,3.42
2023-05-21T02:11:58.282Z,2.85
2023-05-21T02:15:00.514Z,3.53
2023-05-21T02:18:03.568Z,3.10
2023-05-21T02:21:05.905Z,2.65
2023-05-21T02:24:08.200Z,3.00
2023-05-21T02:27:10.671Z,2.75
2023-05-21T02:30:14.433Z,2.67
2023-05-21T02:33:16.710Z,2.42
2023-05-21T02:36:19.021Z,3.12
2023-05-21T02:39:21.379Z,2.80
2023-05-21T02:42:23.842Z,2.75
2023-05-21T02:45:26.249Z,2.90
2023-05-21T02:48:28.456Z,2.22
2023-05-21T02:51:30.817Z,3.22
2023-05-21T02:54:33.043Z,2.78
2023-05-21T02:57:35.235Z,2.78
2023-05-21T03:00:37.450Z,2.60
2023-05-21T03:03:39.713Z,2.60
2023-05-21T03:06:42.014Z,2.58
2023-05-21T03:09:44.272Z,2.78
2023-05-21T03:12:47.209Z,2.17
2023-05-21T03:15:49.397Z,2.60
2023-05-21T03:18:51.790Z,2.83
2023-05-21T03:21:54.702Z,3.08
2023-05-21T03:24:58.263Z,2.53
2023-05-21T03:28:00.482Z,3.00
2023-05-21T03:31:02.763Z,2.65
2023-05-21T03:34:05.026Z,2.35
2023-05-21T03:37:07.240Z,3.12
2023-05-21T03:40:09.853Z,2.92
2023-05-21T03:43:12.135Z,2.90
2023-05-21T03:46:14.352Z,2.72
2023-05-21T03:49:16.583Z,2.72
2023-05-21T03:52:18.839Z,3.10
2023-05-21T03:55:21.093Z,2.53
2023-05-21T03:58:23.472Z,2.65
2023-05-21T04:01:25.695Z,2.72
2023-05-21T04:04:29.536Z,2.92
2023-05-21T04:07:31.935Z,2.20
2023-05-21T04:10:34.717Z,2.12
2023-05-21T04:13:36.953Z,2.33
2023-05-21T04:16:39.243Z,2.40
2023-05-21T04:19:42.057Z,2.20
2023-05-21T04:22:44.403Z,2.50
2023-05-21T04:25:50.807Z,2.37
2023-05-21T04:28:59.413Z,2.37
2023-05-21T04:32:01.661Z,2.53
2023-05-21T04:35:04.368Z,2.30
2023-05-21T04:38:06.611Z,2.60
2023-05-21T04:41:10.893Z,2.45
2023-05-21T04:44:14.977Z,2.58
2023-05-21T04:47:21.101Z,2.20
2023-05-21T04:50:24.341Z,2.30
2023-05-21T04:53:26.625Z,2.30
2023-05-21T04:56:29.606Z,2.28
2023-05-21T04:59:31.998Z,2.55
2023-05-21T05:02:34.288Z,2.50
2023-05-21T05:05:36.773Z,2.50
2023-05-21T05:08:39.243Z,2.50
2023-05-21T05:11:41.508Z,2.03
2023-05-21T05:14:43.766Z,2.25
2023-05-21T05:17:48.357Z,3.10
2023-05-21T05:20:50.639Z,2.42
2023-05-21T05:23:52.967Z,2.17
2023-05-21T05:26:55.168Z,2.00
2023-05-21T05:29:57.381Z,2.50
2023-05-21T05:32:59.637Z,1.87
2023-05-21T05:36:01.834Z,2.20
2023-05-21T05:39:04.099Z,2.50
2023-05-21T05:42:06.348Z,2.03
2023-05-21T05:45:09.121Z,2.22
2023-05-21T05:48:12.069Z,2.25
2023-05-21T05:51:15.482Z,2.28
2023-05-21T05:54:17.788Z,2.37
2023-05-21T05:57:20.044Z,2.20
2023-05-21T06:00:22.385Z,2.42
2023-05-21T06:03:24.683Z,2.67
2023-05-21T06:06:26.947Z,2.58
2023-05-21T06:09:29.162Z,2.25
2023-05-21T06:12:31.380Z,2.37
2023-05-21T06:15:33.879Z,2.35
2023-05-21T06:18:36.239Z,2.42
2023-05-21T06:21:38.611Z,2.60
2023-05-21T06:24:40.873Z,1.80
2023-05-21T06:27:43.178Z,2.15
2023-05-21T06:30:45.525Z,2.15
2023-05-21T06:33:49.559Z,1.98
2023-05-21T06:36:51.882Z,2.28
2023-05-21T06:39:54.104Z,2.47
2023-05-21T06:42:56.653Z,2.00
2023-05-21T06:45:58.891Z,2.67
2023-05-21T06:49:01.467Z,2.15
2023-05-21T06:52:03.865Z,2.53
2023-05-21T06:55:07.099Z,2.10
2023-05-21T06:58:09.376Z,2.50
2023-05-21T07:01:14.494Z,2.70
2023-05-21T07:04:16.764Z,2.28
2023-05-21T07:07:19.065Z,2.20
2023-05-21T07:10:21.413Z,2.00
2023-05-21T07:13:23.620Z,2.20
2023-05-21T07:16:26.045Z,2.87
2023-05-21T07:19:28.362Z,2.17
2023-05-21T07:22:30.696Z,2.22
2023-05-21T07:25:33.016Z,2.17
2023-05-21T07:28:35.210Z,2.17
2023-05-21T07:31:37.555Z,2.20
2023-05-21T07:34:39.877Z,1.92
2023-05-21T07:37:42.136Z,2.30
2023-05-21T07:40:44.686Z,2.35
2023-05-21T07:43:46.929Z,1.95
2023-05-21T07:46:49.197Z,2.22
2023-05-21T07:49:51.599Z,1.85
2023-05-21T07:52:53.946Z,1.92
2023-05-21T07:55:56.198Z,1.70
2023-05-21T07:58:58.481Z,2.08
2023-05-21T08:02:00.856Z,1.92
2023-05-21T08:05:03.408Z,2.10
2023-05-21T08:08:05.749Z,1.65
2023-05-21T08:11:07.960Z,2.22
2023-05-21T08:14:10.332Z,2.00
2023-05-21T08:17:12.750Z,2.00
2023-05-21T08:20:15.348Z,2.17
2023-05-21T08:23:17.596Z,1.77
2023-05-21T08:26:19.878Z,1.75
2023-05-21T08:29:22.148Z,1.98
2023-05-21T08:32:24.444Z,2.10
2023-05-21T08:35:26.705Z,2.10
2023-05-21T08:38:30.450Z,1.70
2023-05-21T08:41:35.597Z,2.10
2023-05-21T08:44:38.212Z,2.42
2023-05-21T08:47:43.810Z,1.98
2023-05-21T08:50:46.575Z,2.00
2023-05-21T08:53:50.594Z,2.05
2023-05-21T08:56:53.470Z,2.33
2023-05-21T08:59:55.914Z,1.83
2023-05-21T09:03:01.812Z,1.90
2023-05-21T09:06:04.204Z,1.85
2023-05-21T09:09:26.373Z,2.10
2023-05-21T09:12:28.786Z,2.10
2023-05-21T09:15:31.547Z,1.85
2023-05-21T09:18:33.998Z,1.98
2023-05-21T09:21:36.206Z,2.00
2023-05-21T09:24:38.637Z,2.03
2023-05-21T09:27:41.075Z,1.45
2023-05-21T09:30:47.784Z,1.90
2023-05-21T09:33:50.753Z,1.98
2023-05-21T09:36:56.850Z,2.08
2023-05-21T09:39:59.070Z,2.08
2023-05-21T09:43:01.392Z,1.90
2023-05-21T09:46:03.710Z,1.95
2023-05-21T09:49:06.090Z,1.92
2023-05-21T09:52:08.354Z,1.60
2023-05-21T09:55:12.661Z,1.95
2023-05-21T09:58:14.900Z,1.95
2023-05-21T10:01:20.160Z,1.80
2023-05-21T10:04:23.402Z,1.83
2023-05-21T10:07:26.495Z,1.70
2023-05-21T10:10:30.311Z,2.10
2023-05-21T10:13:34.397Z,1.80
2023-05-21T10:16:37.401Z,1.80
2023-05-21T10:19:41.142Z,2.10
2023-05-21T10:22:44.672Z,1.70
2023-05-21T10:25:47.369Z,1.80
2023-05-21T10:28:50.987Z,1.60
2023-05-21T10:31:53.418Z,1.60
2023-05-21T10:34:58.664Z,1.70
2023-05-21T10:38:04.546Z,1.60
2023-05-21T10:41:07.106Z,1.80
2023-05-21T10:44:33.747Z,2.10
2023-05-21T10:48:16.584Z,1.85
2023-05-21T10:51:22.555Z,2.05
2023-05-21T10:54:42.253Z,1.87
2023-05-21T10:58:16.793Z,1.80
2023-05-21T11:01:19.502Z,1.80
2023-05-21T11:04:23.478Z,1.80
2023-05-21T11:07:57.047Z,1.73
2023-05-21T11:10:59.508Z,2.35
2023-05-21T11:14:01.760Z,2.00
2023-05-21T11:17:15.569Z,1.60
2023-05-21T11:20:21.778Z,2.25
2023-05-21T11:23:24.028Z,1.83
2023-05-21T11:26:28.821Z,1.73
2023-05-21T11:29:42.123Z,1.95
2023-05-21T11:33:12.276Z,1.83
2023-05-21T11:36:14.663Z,2.22
2023-05-21T11:39:23.959Z,2.20
2023-05-21T11:42:34.407Z,1.77
2023-05-21T11:45:36.732Z,2.12
2023-05-21T11:48:39.137Z,2.10
2023-05-21T11:51:41.576Z,2.03
2023-05-21T11:54:51.924Z,1.85
2023-05-21T11:57:55.393Z,2.10
2023-05-21T12:00:57.805Z,1.92
2023-05-21T12:04:04.475Z,1.92
2023-05-21T12:07:10.403Z,2.20
2023-05-21T12:10:13.181Z,1.92
2023-05-21T12:13:15.444Z,2.12
2023-05-21T12:16:17.760Z,2.12
2023-05-21T12:19:20.113Z,2.28
2023-05-21T12:22:24.589Z,1.67
2023-05-21T12:25:27.484Z,1.85
2023-05-21T12:28:30.065Z,2.20
2023-05-21T12:31:32.963Z,2.12
2023-05-21T12:34:46.193Z,2.15
2023-05-21T12:37:50.620Z,2.30
2023-05-21T12:40:53.002Z,2.53
2023-05-21T12:43:55.238Z,1.90
2023-05-21T12:46:58.203Z,1.83
2023-05-21T12:50:04.425Z,2.05
2023-05-21T12:53:09.274Z,2.05
2023-05-21T12:56:12.301Z,1.95
2023-05-21T12:59:15.520Z,2.10
2023-05-21T13:02:25.027Z,1.98
2023-05-21T13:05:27.305Z,1.98
2023-05-21T13:08:29.635Z,2.10
2023-05-21T13:11:31.868Z,1.50
2023-05-21T13:14:34.219Z,1.90
2023-05-21T13:17:36.502Z,2.12
2023-05-21T13:20:38.946Z,1.92
2023-05-21T13:23:41.465Z,2.35
2023-05-21T13:26:43.696Z,2.00
2023-05-21T13:29:46.089Z,2.17
2023-05-21T13:32:48.695Z,2.00
2023-05-21T13:35:51.878Z,1.77
2023-05-21T13:38:56.397Z,1.80
2023-05-21T13:41:59.278Z,2.40
2023-05-21T13:45:01.618Z,1.98
2023-05-21T13:48:04.032Z,1.80
2023-05-21T13:51:06.362Z,1.73
2023-05-21T13:54:08.757Z,2.03
2023-05-21T13:57:11.118Z,2.37
2023-05-21T14:00:15.478Z,2.83
2023-05-21T14:03:17.887Z,2.17
2023-05-21T14:06:20.151Z,2.15
2023-05-21T14:09:23.478Z,1.80
2023-05-21T14:12:26.742Z,2.67
2023-05-21T14:15:28.966Z,2.03
2023-05-21T14:18:31.174Z,1.98
2023-05-21T14:21:33.383Z,1.70
2023-05-21T14:24:35.593Z,1.73
2023-05-21T14:27:38.290Z,1.77
2023-05-21T14:30:40.724Z,1.58
2023-05-21T14:33:42.926Z,2.12
2023-05-21T14:36:45.270Z,2.25
2023-05-21T14:39:47.509Z,2.00
2023-05-21T14:42:52.208Z,2.35
2023-05-21T14:45:54.472Z,2.45
2023-05-21T14:48:59.228Z,1.90
2023-05-21T14:52:01.525Z,2.00
2023-05-21T14:55:04.364Z,2.17
2023-05-21T14:58:07.216Z,1.70
2023-05-21T15:01:09.499Z,2.05
2023-05-21T15:04:12.061Z,2.25
2023-05-21T15:07:14.416Z,1.77
2023-05-21T15:10:18.546Z,2.17
2023-05-21T15:13:21.458Z,2.10
2023-05-21T15:16:23.856Z,2.37
2023-05-21T15:19:26.263Z,2.12
2023-05-21T15:22:28.592Z,2.20
2023-05-21T15:25:30.858Z,2.45
2023-05-21T15:28:33.088Z,1.98
2023-05-21T15:31:35.548Z,2.10
2023-05-21T15:34:37.956Z,2.83
2023-05-21T15:37:40.555Z,2.80
2023-05-21T15:40:42.906Z,2.10
2023-05-21T15:43:46.265Z,2.20
2023-05-21T15:46:50.005Z,2.30
2023-05-21T15:49:52.343Z,1.87
2023-05-21T15:52:54.571Z,1.98
2023-05-21T15:55:57.308Z,2.05
2023-05-21T15:59:01.397Z,1.77
2023-05-21T16:02:03.756Z,2.22
2023-05-21T16:05:06.299Z,1.75
2023-05-21T16:08:10.763Z,1.70
2023-05-21T16:11:13.242Z,1.83
2023-05-21T16:14:15.522Z,2.00
2023-05-21T16:17:19.599Z,1.90
2023-05-21T16:20:22.208Z,2.08
2023-05-21T16:23:24.462Z,1.80
2023-05-21T16:26:27.050Z,2.05
2023-05-21T16:29:29.301Z,2.20
2023-05-21T16:32:31.614Z,2.00
2023-05-21T16:35:34.050Z,1.80
2023-05-21T16:38:36.338Z,2.22
2023-05-21T16:41:38.576Z,2.40
2023-05-21T16:44:40.887Z,2.28
2023-05-21T16:47:43.158Z,2.40
2023-05-21T16:50:46.955Z,2.12
2023-05-21T16:53:49.209Z,1.90
2023-05-21T16:56:51.487Z,2.08
2023-05-21T16:59:53.741Z,2.15
2023-05-21T17:02:56.217Z,2.00
2023-05-21T17:05:58.956Z,2.00
2023-05-21T17:09:01.852Z,1.98
2023-05-21T17:12:04.515Z,1.90
2023-05-21T17:15:07.332Z,2.03
2023-05-21T17:18:09.606Z,1.90
2023-05-21T17:21:11.949Z,2.20
2023-05-21T17:24:14.182Z,2.20
2023-05-21T17:27:16.417Z,2.00
2023-05-21T17:30:18.862Z,1.90
2023-05-21T17:33:21.424Z,2.28
2023-05-21T17:36:23.668Z,1.90
2023-05-21T17:39:26.056Z,2.10
2023-05-21T17:42:28.358Z,2.10
2023-05-21T17:45:30.557Z,2.05
2023-05-21T17:48:32.786Z,2.05
2023-05-21T17:51:35.069Z,2.53
2023-05-21T17:54:37.312Z,2.25
2023-05-21T17:57:39.548Z,2.08
2023-05-21T18:00:41.851Z,2.20
2023-05-21T18:03:44.324Z,2.03
2023-05-21T18:06:46.587Z,2.12
2023-05-21T18:09:48.880Z,2.30
2023-05-21T18:12:51.099Z,2.15
2023-05-21T18:15:56.307Z,3.00
2023-05-21T18:18:58.737Z,2.60
2023-05-21T18:22:01.013Z,2.62
2023-05-21T18:25:04.235Z,2.30
2023-05-21T18:28:06.572Z,3.00
2023-05-21T18:31:08.920Z,3.00
2023-05-21T18:34:11.233Z,2.58
2023-05-21T18:37:13.467Z,3.03
2023-05-21T18:40:16.995Z,2.50
2023-05-21T18:43:19.240Z,2.67
2023-05-21T18:46:21.804Z,2.60
2023-05-21T18:49:24.380Z,3.08
2023-05-21T18:52:26.769Z,3.58
2023-05-21T18:55:29.095Z,3.22
2023-05-21T18:58:33.077Z,2.60
2023-05-21T19:01:35.630Z,3.58
2023-05-21T19:04:38.040Z,3.50
2023-05-21T19:07:43.732Z,3.55
2023-05-21T19:10:46.014Z,3.70
2023-05-21T19:13:48.276Z,4.20
2023-05-21T19:16:50.516Z,3.40
2023-05-21T19:19:56.153Z,3.33
2023-05-21T19:22:58.630Z,3.47
2023-05-21T19:26:01.294Z,3.37
2023-05-21T19:29:03.528Z,3.28
2023-05-21T19:32:06.412Z,3.42
2023-05-21T19:35:08.774Z,3.70
2023-05-21T19:38:11.156Z,3.15
2023-05-21T19:41:13.566Z,3.50
2023-05-21T19:44:15.967Z,3.42
2023-05-21T19:47:18.229Z,3.30
2023-05-21T19:50:20.542Z,3.25
2023-05-21T19:53:23.291Z,4.10
2023-05-21T19:56:26.719Z,4.05
2023-05-21T19:59:28.968Z,3.95
2023-05-21T20:02:31.507Z,3.37
2023-05-21T20:05:33.736Z,3.42
2023-05-21T20:08:36.128Z,3.33
2023-05-21T20:11:38.373Z,2.90
2023-05-21T20:14:41.732Z,2.70
2023-05-21T20:17:44.711Z,3.05
2023-05-21T20:20:47.333Z,2.78
2023-05-21T20:23:49.668Z,3.03
2023-05-21T20:26:52.174Z,2.70
2023-05-21T20:29:54.384Z,3.37
2023-05-21T20:32:57.489Z,2.80
2023-05-21T20:36:00.307Z,3.22
2023-05-21T20:39:02.851Z,3.05
2023-05-21T20:42:08.608Z,4.05
2023-05-21T20:45:12.873Z,2.75
2023-05-21T20:48:15.120Z,3.42
2023-05-21T20:51:17.360Z,3.08
2023-05-21T20:54:19.549Z,2.70
2023-05-21T20:57:26.224Z,3.37
2023-05-21T21:00:28.713Z,3.10
2023-05-21T21:03:34.321Z,2.87
2023-05-21T21:06:38.442Z,2.80
2023-05-21T21:09:41.260Z,2.80
2023-05-21T21:12:43.461Z,3.20
2023-05-21T21:15:45.752Z,3.00
2023-05-21T21:18:48.056Z,3.53
2023-05-21T21:21:51.505Z,3.25
2023-05-21T21:24:53.710Z,3.12
2023-05-21T21:27:55.979Z,4.10
2023-05-21T21:30:58.306Z,3.30
2023-05-21T21:34:00.933Z,3.37
2023-05-21T21:37:03.261Z,3.45
2023-05-21T21:40:06.486Z,3.42
2023-05-21T21:43:08.750Z,3.50
2023-05-21T21:46:10.982Z,3.72
2023-05-21T21:49:14.449Z,3.20
2023-05-21T21:52:17.729Z,2.78
2023-05-21T21:55:20.035Z,3.20
2023-05-21T21:58:22.242Z,3.05
2023-05-21T22:01:24.534Z,3.05
2023-05-21T22:04:26.898Z,3.00
2023-05-21T22:07:32.013Z,3.08
2023-05-21T22:10:38.195Z,2.62
2023-05-21T22:13:41.847Z,2.87
2023-05-21T22:16:44.176Z,2.78
2023-05-21T22:19:46.486Z,2.53
2023-05-21T22:22:49.422Z,2.67
2023-05-21T22:25:51.718Z,2.28
2023-05-21T22:28:53.922Z,2.62
2023-05-21T22:31:56.204Z,2.22
2023-05-21T22:34:58.431Z,2.50
2023-05-21T22:38:01.740Z,2.20
2023-05-21T22:41:04.045Z,2.42
2023-05-21T22:44:06.261Z,2.28
2023-05-21T22:47:09.524Z,2.30
2023-05-21T22:50:12.870Z,2.15
2023-05-21T22:53:15.122Z,2.15
2023-05-21T22:56:17.371Z,2.22
2023-05-21T22:59:19.576Z,2.40
2023-05-21T23:02:21.846Z,2.17
2023-05-21T23:05:24.183Z,1.80
2023-05-21T23:08:26.802Z,2.20
2023-05-21T23:11:29.139Z,2.00
2023-05-21T23:14:31.410Z,2.53
2023-05-21T23:17:33.834Z,2.00
2023-05-21T23:20:36.901Z,1.65
2023-05-21T23:23:39.505Z,1.80
2023-05-21T23:26:41.721Z,1.87
2023-05-21T23:29:43.967Z,2.30
2023-05-21T23:32:46.492Z,1.65
2023-05-21T23:35:48.873Z,2.05
2023-05-21T23:38:51.103Z,1.55
2023-05-21T23:41:53.341Z,1.70
2023-05-21T23:44:55.766Z,1.73
2023-05-21T23:47:58.039Z,1.70
2023-05-21T23:51:00.900Z,2.00
2023-05-21T23:54:03.361Z,2.30
2023-05-21T23:57:06.382Z,2.03
